createdAt,value
2022-11-13T00:00:29.374Z,60.12
2022-11-13T00:01:23.946Z,60.46
2022-11-13T00:01:56.229Z,59.83
2022-11-13T00:02:28.156Z,59.48
2022-11-13T00:03:00.149Z,59.48
2022-11-13T00:03:32.008Z,59.63
2022-11-13T00:04:04.055Z,59.79
2022-11-13T00:04:35.885Z,59.85
2022-11-13T00:05:07.948Z,59.94
2022-11-13T00:05:39.909Z,60.13
2022-11-13T00:06:13.696Z,60.18
2022-11-13T00:06:45.550Z,60.10
2022-11-13T00:07:17.394Z,59.89
2022-11-13T00:07:49.282Z,59.66
2022-11-13T00:08:21.196Z,59.34
2022-11-13T00:08:54.784Z,58.97
2022-11-13T00:09:26.664Z,58.63
2022-11-13T00:09:58.513Z,58.57
2022-11-13T00:10:30.445Z,58.79
2022-11-13T00:11:22.570Z,59.19
2022-11-13T00:11:54.373Z,59.36
2022-11-13T00:12:26.250Z,60.47
2022-11-13T00:12:58.232Z,61.13
2022-11-13T00:13:30.788Z,61.88
2022-11-13T00:14:03.064Z,62.59
2022-11-13T00:14:34.849Z,63.23
2022-11-13T00:15:06.969Z,63.86
2022-11-13T00:15:38.684Z,64.18
2022-11-13T00:16:12.625Z,64.21
2022-11-13T00:16:44.349Z,64.09
2022-11-13T00:17:16.114Z,63.77
2022-11-13T00:17:47.920Z,63.54
2022-11-13T00:18:19.719Z,63.31
2022-11-13T00:18:51.822Z,62.99
2022-11-13T00:19:23.631Z,62.60
2022-11-13T00:19:55.473Z,62.25
2022-11-13T00:20:27.323Z,62.07
2022-11-13T00:21:05.746Z,61.96
2022-11-13T00:21:37.505Z,62.13
2022-11-13T00:22:09.431Z,61.86
2022-11-13T00:22:42.009Z,61.60
2022-11-13T00:23:13.962Z,61.22
2022-11-13T00:23:46.423Z,60.76
2022-11-13T00:24:18.212Z,60.43
2022-11-13T00:24:49.994Z,60.12
2022-11-13T00:25:21.750Z,59.80
2022-11-13T00:25:53.595Z,59.51
2022-11-13T00:26:27.999Z,59.29
2022-11-13T00:26:59.990Z,59.08
2022-11-13T00:27:32.240Z,59.24
2022-11-13T00:28:04.186Z,59.62
2022-11-13T00:28:36.444Z,60.07
2022-11-13T00:29:08.618Z,60.69
2022-11-13T00:29:40.449Z,61.31
2022-11-13T00:30:17.879Z,61.97
2022-11-13T00:30:50.984Z,62.46
2022-11-13T00:31:23.183Z,63.23
2022-11-13T00:31:55.111Z,63.85
2022-11-13T00:32:26.995Z,64.33
2022-11-13T00:32:58.792Z,64.47
2022-11-13T00:34:09.035Z,64.62
2022-11-13T00:35:14.444Z,64.75
2022-11-13T00:35:46.184Z,63.56
2022-11-13T00:36:26.341Z,63.04
2022-11-13T00:36:58.407Z,62.75
2022-11-13T00:37:30.300Z,62.41
2022-11-13T00:38:02.050Z,62.33
2022-11-13T00:38:34.318Z,62.35
2022-11-13T00:39:06.189Z,62.38
2022-11-13T00:39:38.066Z,62.44
2022-11-13T00:40:10.273Z,62.59
2022-11-13T00:40:42.182Z,62.76
2022-11-13T00:41:14.315Z,62.94
2022-11-13T00:41:46.263Z,63.09
2022-11-13T00:42:18.098Z,63.22
2022-11-13T00:42:49.872Z,63.31
2022-11-13T00:43:21.651Z,63.48
2022-11-13T00:43:53.577Z,63.60
2022-11-13T00:44:25.384Z,63.75
2022-11-13T00:44:57.137Z,63.89
2022-11-13T00:45:29.022Z,64.02
2022-11-13T00:46:01.441Z,64.12
2022-11-13T00:46:33.610Z,64.26
2022-11-13T00:47:06.285Z,64.42
2022-11-13T00:47:38.190Z,64.52
2022-11-13T00:48:09.924Z,64.62
2022-11-13T00:48:42.137Z,64.72
2022-11-13T00:49:14.050Z,64.81
2022-11-13T00:49:45.818Z,64.96
2022-11-13T00:50:17.674Z,65.08
2022-11-13T00:50:49.923Z,65.22
2022-11-13T00:51:22.170Z,65.31
2022-11-13T00:51:54.052Z,65.40
2022-11-13T00:52:25.909Z,65.61
2022-11-13T00:52:57.726Z,65.68
2022-11-13T00:53:29.672Z,65.81
2022-11-13T00:54:01.581Z,65.92
2022-11-13T00:54:33.434Z,66.13
2022-11-13T00:55:05.782Z,66.30
2022-11-13T00:55:37.642Z,66.43
2022-11-13T00:56:09.470Z,66.49
2022-11-13T00:56:41.333Z,66.39
2022-11-13T00:57:13.355Z,66.13
2022-11-13T00:57:45.172Z,65.72
2022-11-13T00:58:17.838Z,65.24
2022-11-13T00:58:49.865Z,64.85
2022-11-13T00:59:21.757Z,64.54
2022-11-13T00:59:53.665Z,64.31
2022-11-13T01:00:25.473Z,64.10
2022-11-13T01:01:04.787Z,63.69
2022-11-13T01:01:36.731Z,63.53
2022-11-13T01:02:09.671Z,63.09
2022-11-13T01:02:41.419Z,62.83
2022-11-13T01:03:14.987Z,62.54
2022-11-13T01:03:46.904Z,62.34
2022-11-13T01:04:18.755Z,62.21
2022-11-13T01:04:50.788Z,62.13
2022-11-13T01:05:22.576Z,62.00
2022-11-13T01:05:54.347Z,61.83
2022-11-13T01:06:27.508Z,61.66
2022-11-13T01:06:59.332Z,61.45
2022-11-13T01:07:31.195Z,61.33
2022-11-13T01:08:04.210Z,61.34
2022-11-13T01:08:36.413Z,61.43
2022-11-13T01:09:09.155Z,61.50
2022-11-13T01:09:40.934Z,61.45
2022-11-13T01:10:12.947Z,61.42
2022-11-13T01:10:53.000Z,61.33
2022-11-13T01:11:26.869Z,61.36
2022-11-13T01:11:58.665Z,61.60
2022-11-13T01:12:30.712Z,61.48
2022-11-13T01:13:02.527Z,61.33
2022-11-13T01:13:34.389Z,61.12
2022-11-13T01:14:06.621Z,61.00
2022-11-13T01:14:38.533Z,61.02
2022-11-13T01:15:10.439Z,61.04
2022-11-13T01:15:44.079Z,61.08
2022-11-13T01:16:17.831Z,61.17
2022-11-13T01:16:49.927Z,61.35
2022-11-13T01:17:21.886Z,61.60
2022-11-13T01:17:54.644Z,61.80
2022-11-13T01:18:27.030Z,61.74
2022-11-13T01:18:59.233Z,61.48
2022-11-13T01:19:31.148Z,61.08
2022-11-13T01:20:04.611Z,60.80
2022-11-13T01:20:36.671Z,60.67
2022-11-13T01:21:15.046Z,60.66
2022-11-13T01:21:46.876Z,60.75
2022-11-13T01:22:18.723Z,60.42
2022-11-13T01:22:50.816Z,60.16
2022-11-13T01:23:22.573Z,59.80
2022-11-13T01:23:55.801Z,59.46
2022-11-13T01:24:27.590Z,59.13
2022-11-13T01:24:59.326Z,58.71
2022-11-13T01:25:31.279Z,58.61
2022-11-13T01:26:22.234Z,58.77
2022-11-13T01:26:54.051Z,58.90
2022-11-13T01:27:25.948Z,59.96
2022-11-13T01:27:57.723Z,60.54
2022-11-13T01:28:29.702Z,61.19
2022-11-13T01:29:01.792Z,61.86
2022-11-13T01:29:33.725Z,62.42
2022-11-13T01:30:06.193Z,63.06
2022-11-13T01:30:39.031Z,63.70
2022-11-13T01:31:18.435Z,64.06
2022-11-13T01:31:50.407Z,64.22
2022-11-13T01:32:22.234Z,63.76
2022-11-13T01:32:54.022Z,63.24
2022-11-13T01:33:26.020Z,62.57
2022-11-13T01:33:58.329Z,61.93
2022-11-13T01:34:30.519Z,61.27
2022-11-13T01:35:02.318Z,60.82
2022-11-13T01:35:34.099Z,60.42
2022-11-13T01:36:12.528Z,60.00
2022-11-13T01:36:44.474Z,59.75
2022-11-13T01:37:16.295Z,59.23
2022-11-13T01:37:48.099Z,58.80
2022-11-13T01:38:19.968Z,58.64
2022-11-13T01:38:52.540Z,58.78
2022-11-13T01:39:24.327Z,59.19
2022-11-13T01:39:56.130Z,59.66
2022-11-13T01:40:27.877Z,60.25
2022-11-13T01:40:59.764Z,60.89
2022-11-13T01:41:33.797Z,61.49
2022-11-13T01:42:05.872Z,62.09
2022-11-13T01:42:37.672Z,62.76
2022-11-13T01:43:38.894Z,63.38
2022-11-13T01:44:13.517Z,64.28
2022-11-13T01:44:51.663Z,63.81
2022-11-13T01:46:08.350Z,63.48
2022-11-13T01:46:54.880Z,63.74
2022-11-13T01:47:27.168Z,62.36
2022-11-13T01:47:59.552Z,61.17
2022-11-13T01:48:56.059Z,60.53
2022-11-13T01:49:34.041Z,60.75
2022-11-13T01:50:09.430Z,59.70
2022-11-13T01:50:41.412Z,59.07
2022-11-13T01:51:18.595Z,58.45
2022-11-13T01:51:55.508Z,58.33
2022-11-13T01:52:35.074Z,58.50
2022-11-13T01:53:07.205Z,58.88
2022-11-13T01:53:41.652Z,59.62
2022-11-13T01:54:18.691Z,60.22
2022-11-13T01:54:54.856Z,60.80
2022-11-13T01:55:26.918Z,61.42
2022-11-13T01:55:59.039Z,62.13
2022-11-13T01:56:30.988Z,62.75
2022-11-13T01:57:04.105Z,63.39
2022-11-13T01:57:35.936Z,63.82
2022-11-13T01:58:10.001Z,63.88
2022-11-13T01:58:46.519Z,63.74
2022-11-13T01:59:25.288Z,63.35
2022-11-13T02:00:01.595Z,62.86
2022-11-13T02:00:33.788Z,62.22
2022-11-13T02:01:06.040Z,61.59
2022-11-13T02:01:38.212Z,61.05
2022-11-13T02:02:10.062Z,60.60
2022-11-13T02:02:42.072Z,60.09
2022-11-13T02:03:13.959Z,59.78
2022-11-13T02:03:45.772Z,59.39
2022-11-13T02:04:17.495Z,59.02
2022-11-13T02:04:49.807Z,58.78
2022-11-13T02:05:21.584Z,58.73
2022-11-13T02:05:54.034Z,58.94
2022-11-13T02:06:30.401Z,59.39
2022-11-13T02:07:06.712Z,59.90
2022-11-13T02:07:38.665Z,60.57
2022-11-13T02:08:10.651Z,61.34
2022-11-13T02:08:43.932Z,61.94
2022-11-13T02:09:18.287Z,62.59
2022-11-13T02:09:54.376Z,63.27
2022-11-13T02:10:26.752Z,63.92
2022-11-13T02:10:58.660Z,64.29
2022-11-13T02:11:30.537Z,64.24
2022-11-13T02:12:05.339Z,63.90
2022-11-13T02:12:41.602Z,63.49
2022-11-13T02:13:14.232Z,63.04
2022-11-13T02:13:46.976Z,62.33
2022-11-13T02:14:21.285Z,61.83
2022-11-13T02:14:54.760Z,61.35
2022-11-13T02:15:27.936Z,60.96
2022-11-13T02:16:00.477Z,60.57
2022-11-13T02:16:34.390Z,60.27
2022-11-13T02:17:09.847Z,60.01
2022-11-13T02:18:08.520Z,59.78
2022-11-13T02:18:42.017Z,60.15
2022-11-13T02:19:31.070Z,59.19
2022-11-13T02:20:05.472Z,58.80
2022-11-13T02:20:46.097Z,58.86
2022-11-13T02:21:31.175Z,59.07
2022-11-13T02:22:25.426Z,59.58
2022-11-13T02:23:11.412Z,60.07
2022-11-13T02:23:51.764Z,61.03
2022-11-13T02:24:32.572Z,61.90
2022-11-13T02:25:06.295Z,62.66
2022-11-13T02:25:41.585Z,63.61
2022-11-13T02:26:13.330Z,63.99
2022-11-13T02:26:45.385Z,63.98
2022-11-13T02:27:29.905Z,63.80
2022-11-13T02:28:01.798Z,63.66
2022-11-13T02:28:33.825Z,62.79
2022-11-13T02:29:05.935Z,62.21
2022-11-13T02:29:37.817Z,61.57
2022-11-13T02:30:32.091Z,61.00
2022-11-13T02:31:12.607Z,61.25
2022-11-13T02:31:44.355Z,60.35
2022-11-13T02:32:16.197Z,59.53
2022-11-13T02:32:50.420Z,59.04
2022-11-13T02:33:31.246Z,58.48
2022-11-13T02:34:03.144Z,58.28
2022-11-13T02:34:34.978Z,58.66
2022-11-13T02:35:06.992Z,59.14
2022-11-13T02:35:38.813Z,59.57
2022-11-13T02:36:12.355Z,60.24
2022-11-13T02:36:44.166Z,60.86
2022-11-13T02:37:15.954Z,61.60
2022-11-13T02:37:47.961Z,62.33
2022-11-13T02:38:19.923Z,62.97
2022-11-13T02:38:53.701Z,63.64
2022-11-13T02:39:25.424Z,63.84
2022-11-13T02:39:57.221Z,63.66
2022-11-13T02:40:29.547Z,63.27
2022-11-13T02:41:01.348Z,62.70
2022-11-13T02:41:33.126Z,61.87
2022-11-13T02:42:04.927Z,61.15
2022-11-13T02:42:36.902Z,60.48
2022-11-13T02:43:08.815Z,59.95
2022-11-13T02:43:41.019Z,59.48
2022-11-13T02:44:12.866Z,58.96
2022-11-13T02:44:44.669Z,58.55
2022-11-13T02:45:16.460Z,58.39
2022-11-13T02:45:48.268Z,58.63
2022-11-13T02:46:20.181Z,59.09
2022-11-13T02:46:52.056Z,59.60
2022-11-13T02:47:24.507Z,60.20
2022-11-13T02:47:58.917Z,60.90
2022-11-13T02:48:30.997Z,61.56
2022-11-13T02:49:03.990Z,62.33
2022-11-13T02:49:35.774Z,62.88
2022-11-13T02:50:09.726Z,63.59
2022-11-13T02:50:41.633Z,63.93
2022-11-13T02:51:13.776Z,63.78
2022-11-13T02:51:45.577Z,63.44
2022-11-13T02:52:17.429Z,62.88
2022-11-13T02:52:49.384Z,62.26
2022-11-13T02:53:21.394Z,61.67
2022-11-13T02:53:53.155Z,61.15
2022-11-13T02:54:25.220Z,60.78
2022-11-13T02:54:57.052Z,60.45
2022-11-13T02:55:28.931Z,60.05
2022-11-13T02:56:00.894Z,59.66
2022-11-13T02:56:32.767Z,59.36
2022-11-13T02:57:04.615Z,59.15
2022-11-13T02:57:36.511Z,59.09
2022-11-13T02:58:08.310Z,59.21
2022-11-13T02:58:39.977Z,59.59
2022-11-13T02:59:11.736Z,60.06
2022-11-13T02:59:43.853Z,60.66
2022-11-13T03:00:16.403Z,61.31
2022-11-13T03:00:48.412Z,61.92
2022-11-13T03:01:20.351Z,62.60
2022-11-13T03:01:52.363Z,63.31
2022-11-13T03:02:24.643Z,63.97
2022-11-13T03:02:56.619Z,64.34
2022-11-13T03:03:56.149Z,64.38
2022-11-13T03:04:20.490Z,64.42
2022-11-13T03:05:48.456Z,63.59
2022-11-13T03:06:20.353Z,62.72
2022-11-13T03:06:52.097Z,62.17
2022-11-13T03:07:23.928Z,61.73
2022-11-13T03:07:55.679Z,61.28
2022-11-13T03:08:27.765Z,60.89
2022-11-13T03:08:59.598Z,60.55
2022-11-13T03:09:31.406Z,60.29
2022-11-13T03:10:03.592Z,60.04
2022-11-13T03:10:36.377Z,59.83
2022-11-13T03:11:11.205Z,59.67
2022-11-13T03:11:43.762Z,59.54
2022-11-13T03:12:15.548Z,59.45
2022-11-13T03:12:47.418Z,59.32
2022-11-13T03:13:19.372Z,59.16
2022-11-13T03:13:51.274Z,59.24
2022-11-13T03:14:23.070Z,59.52
2022-11-13T03:14:54.766Z,59.96
2022-11-13T03:15:26.554Z,60.56
2022-11-13T03:16:06.271Z,61.12
2022-11-13T03:16:38.059Z,61.62
2022-11-13T03:17:09.942Z,62.51
2022-11-13T03:17:41.861Z,63.21
2022-11-13T03:18:14.017Z,63.86
2022-11-13T03:18:46.361Z,64.22
2022-11-13T03:19:18.333Z,64.26
2022-11-13T03:19:50.092Z,64.09
2022-11-13T03:20:22.028Z,63.85
2022-11-13T03:20:53.788Z,63.62
2022-11-13T03:21:25.567Z,63.43
2022-11-13T03:21:57.529Z,63.21
2022-11-13T03:22:29.442Z,62.97
2022-11-13T03:23:01.910Z,62.70
2022-11-13T03:23:33.745Z,62.50
2022-11-13T03:24:05.959Z,62.35
2022-11-13T03:24:37.807Z,62.28
2022-11-13T03:25:10.880Z,62.32
2022-11-13T03:25:42.992Z,62.17
2022-11-13T03:26:16.859Z,61.90
2022-11-13T03:26:48.671Z,61.65
2022-11-13T03:27:21.071Z,61.46
2022-11-13T03:27:52.760Z,61.34
2022-11-13T03:28:24.723Z,61.24
2022-11-13T03:28:56.727Z,61.18
2022-11-13T03:29:28.918Z,61.14
2022-11-13T03:30:00.837Z,61.08
2022-11-13T03:30:32.650Z,61.09
2022-11-13T03:31:05.108Z,61.09
2022-11-13T03:31:37.033Z,61.10
2022-11-13T03:32:08.796Z,61.19
2022-11-13T03:32:40.729Z,61.15
2022-11-13T03:33:12.397Z,61.01
2022-11-13T03:33:44.272Z,60.91
2022-11-13T03:34:16.934Z,60.82
2022-11-13T03:34:48.776Z,60.73
2022-11-13T03:35:22.234Z,60.72
2022-11-13T03:35:54.511Z,60.76
2022-11-13T03:36:26.715Z,60.85
2022-11-13T03:36:58.530Z,60.95
2022-11-13T03:37:30.355Z,61.07
2022-11-13T03:38:02.303Z,61.14
2022-11-13T03:38:34.688Z,61.18
2022-11-13T03:39:06.639Z,61.24
2022-11-13T03:39:38.540Z,61.27
2022-11-13T03:40:10.705Z,61.25
2022-11-13T03:40:42.954Z,61.16
2022-11-13T03:41:14.791Z,61.11
2022-11-13T03:41:46.665Z,60.96
2022-11-13T03:42:18.390Z,60.88
2022-11-13T03:42:50.167Z,60.81
2022-11-13T03:43:22.199Z,60.78
2022-11-13T03:43:54.086Z,60.76
2022-11-13T03:44:25.928Z,60.69
2022-11-13T03:44:57.944Z,60.68
2022-11-13T03:45:29.819Z,60.69
2022-11-13T03:46:01.667Z,60.79
2022-11-13T03:46:33.595Z,60.86
2022-11-13T03:47:05.704Z,60.97
2022-11-13T03:47:37.733Z,61.06
2022-11-13T03:48:09.525Z,61.14
2022-11-13T03:48:41.430Z,61.24
2022-11-13T03:49:13.289Z,61.29
2022-11-13T03:49:45.217Z,61.26
2022-11-13T03:50:17.038Z,61.26
2022-11-13T03:50:52.926Z,61.34
2022-11-13T03:51:24.975Z,61.44
2022-11-13T03:51:57.360Z,61.56
2022-11-13T03:52:29.253Z,61.72
2022-11-13T03:53:01.289Z,61.85
2022-11-13T03:53:33.249Z,61.92
2022-11-13T03:54:05.037Z,61.92
2022-11-13T03:54:36.881Z,61.95
2022-11-13T03:55:08.959Z,62.03
2022-11-13T03:55:41.019Z,62.06
2022-11-13T03:56:12.822Z,62.11
2022-11-13T03:56:44.550Z,62.27
2022-11-13T03:57:16.427Z,62.41
2022-11-13T03:57:48.277Z,62.35
2022-11-13T03:58:20.743Z,62.04
2022-11-13T03:58:52.571Z,61.67
2022-11-13T03:59:24.360Z,61.17
2022-11-13T03:59:56.177Z,60.69
2022-11-13T04:00:28.157Z,60.24
2022-11-13T04:00:59.946Z,59.96
2022-11-13T04:01:31.959Z,59.74
2022-11-13T04:02:03.978Z,59.58
2022-11-13T04:02:36.101Z,59.53
2022-11-13T04:03:08.797Z,59.53
2022-11-13T04:03:41.609Z,59.56
2022-11-13T04:04:13.460Z,59.59
2022-11-13T04:04:45.285Z,59.61
2022-11-13T04:05:22.474Z,59.67
2022-11-13T04:05:54.546Z,59.79
2022-11-13T04:06:26.425Z,59.91
2022-11-13T04:06:58.261Z,60.03
2022-11-13T04:07:30.173Z,60.08
2022-11-13T04:08:02.451Z,60.04
2022-11-13T04:08:34.174Z,60.08
2022-11-13T04:09:06.429Z,60.10
2022-11-13T04:09:38.319Z,60.22
2022-11-13T04:10:10.120Z,60.41
2022-11-13T04:10:42.060Z,60.59
2022-11-13T04:11:13.890Z,60.83
2022-11-13T04:11:45.769Z,60.97
2022-11-13T04:12:17.481Z,61.07
2022-11-13T04:12:49.341Z,61.15
2022-11-13T04:13:21.144Z,61.14
2022-11-13T04:13:53.037Z,61.20
2022-11-13T04:14:24.821Z,61.31
2022-11-13T04:14:56.657Z,61.47
2022-11-13T04:15:28.628Z,61.62
2022-11-13T04:16:00.594Z,61.77
2022-11-13T04:16:32.328Z,62.00
2022-11-13T04:17:04.149Z,62.12
2022-11-13T04:17:36.052Z,62.19
2022-11-13T04:18:07.889Z,62.19
2022-11-13T04:18:39.723Z,62.10
2022-11-13T04:19:11.508Z,62.08
2022-11-13T04:19:43.201Z,62.04
2022-11-13T04:20:15.821Z,62.06
2022-11-13T04:20:47.617Z,62.09
2022-11-13T04:21:19.527Z,62.17
2022-11-13T04:21:51.268Z,62.27
2022-11-13T04:22:23.060Z,62.29
2022-11-13T04:22:56.429Z,62.36
2022-11-13T04:23:28.806Z,62.45
2022-11-13T04:24:00.599Z,62.62
2022-11-13T04:24:32.536Z,62.79
2022-11-13T04:25:05.436Z,62.91
2022-11-13T04:25:37.192Z,63.08
2022-11-13T04:26:09.146Z,63.22
2022-11-13T04:26:41.038Z,63.34
2022-11-13T04:27:12.804Z,63.49
2022-11-13T04:27:44.545Z,63.60
2022-11-13T04:28:16.352Z,63.68
2022-11-13T04:28:48.227Z,63.74
2022-11-13T04:29:20.053Z,63.78
2022-11-13T04:29:51.827Z,63.96
2022-11-13T04:30:23.579Z,64.06
2022-11-13T04:30:55.870Z,64.16
2022-11-13T04:31:27.672Z,64.31
2022-11-13T04:31:59.576Z,64.42
2022-11-13T04:32:32.041Z,64.51
2022-11-13T04:33:03.802Z,64.57
2022-11-13T04:33:35.490Z,64.65
2022-11-13T04:34:08.226Z,64.70
2022-11-13T04:34:40.213Z,64.69
2022-11-13T04:35:12.225Z,64.81
2022-11-13T04:35:45.443Z,64.91
2022-11-13T04:36:17.147Z,64.94
2022-11-13T04:36:48.989Z,64.98
2022-11-13T04:37:20.683Z,64.99
2022-11-13T04:37:52.917Z,65.02
2022-11-13T04:38:24.811Z,65.01
2022-11-13T04:38:56.808Z,65.00
2022-11-13T04:39:28.614Z,65.09
2022-11-13T04:40:00.350Z,65.19
2022-11-13T04:40:32.055Z,65.28
2022-11-13T04:41:22.338Z,65.37
2022-11-13T04:42:12.551Z,65.37
2022-11-13T04:42:50.423Z,65.48
2022-11-13T04:43:22.142Z,65.63
2022-11-13T04:43:53.904Z,65.74
2022-11-13T04:44:25.658Z,65.80
2022-11-13T04:44:57.481Z,65.89
2022-11-13T04:45:29.333Z,65.95
2022-11-13T04:46:01.208Z,65.97
2022-11-13T04:46:33.118Z,65.92
2022-11-13T04:47:05.014Z,65.93
2022-11-13T04:47:37.081Z,65.96
2022-11-13T04:48:09.082Z,66.01
2022-11-13T04:48:40.803Z,66.08
2022-11-13T04:49:12.525Z,66.13
2022-11-13T04:49:44.338Z,66.21
2022-11-13T04:50:16.377Z,66.28
2022-11-13T04:50:48.130Z,66.35
2022-11-13T04:51:19.964Z,66.46
2022-11-13T04:51:51.856Z,66.58
2022-11-13T04:52:23.575Z,66.68
2022-11-13T04:52:55.441Z,66.73
2022-11-13T04:53:27.238Z,66.84
2022-11-13T04:53:59.094Z,66.93
2022-11-13T04:54:30.878Z,67.02
2022-11-13T04:55:03.786Z,67.06
2022-11-13T04:55:35.637Z,67.11
2022-11-13T04:56:07.445Z,67.11
2022-11-13T04:56:39.197Z,67.17
2022-11-13T04:57:10.861Z,67.23
2022-11-13T04:57:42.690Z,67.33
2022-11-13T04:58:14.517Z,67.40
2022-11-13T04:58:46.312Z,67.49
2022-11-13T04:59:18.416Z,67.54
2022-11-13T04:59:50.780Z,67.60
2022-11-13T05:00:23.244Z,67.60
2022-11-13T05:00:55.062Z,67.62
2022-11-13T05:01:26.854Z,67.62
2022-11-13T05:01:58.670Z,67.66
2022-11-13T05:02:30.563Z,67.67
2022-11-13T05:03:02.610Z,67.76
2022-11-13T05:03:34.481Z,67.83
2022-11-13T05:04:06.219Z,67.89
2022-11-13T05:04:38.167Z,67.90
2022-11-13T05:05:10.272Z,67.92
2022-11-13T05:05:42.345Z,67.90
2022-11-13T05:06:14.277Z,67.89
2022-11-13T05:06:46.096Z,67.96
2022-11-13T05:07:18.029Z,67.99
2022-11-13T05:07:50.266Z,68.06
2022-11-13T05:08:22.095Z,68.09
2022-11-13T05:08:54.097Z,68.11
2022-11-13T05:09:25.790Z,68.15
2022-11-13T05:09:57.854Z,68.23
2022-11-13T05:10:29.726Z,68.26
2022-11-13T05:11:02.952Z,68.23
2022-11-13T05:11:34.814Z,68.23
2022-11-13T05:12:07.693Z,68.26
2022-11-13T05:12:39.498Z,68.27
2022-11-13T05:13:11.298Z,68.28
2022-11-13T05:13:43.162Z,68.30
2022-11-13T05:14:14.980Z,68.32
2022-11-13T05:14:46.782Z,68.30
2022-11-13T05:15:19.615Z,68.33
2022-11-13T05:15:59.080Z,68.34
2022-11-13T05:16:30.765Z,68.33
2022-11-13T05:17:03.263Z,68.41
2022-11-13T05:17:35.012Z,68.39
2022-11-13T05:18:06.881Z,68.31
2022-11-13T05:18:39.159Z,68.24
2022-11-13T05:19:11.039Z,68.21
2022-11-13T05:19:42.780Z,68.18
2022-11-13T05:20:14.833Z,68.20
2022-11-13T05:20:46.595Z,68.24
2022-11-13T05:21:18.409Z,68.21
2022-11-13T05:21:50.248Z,68.24
2022-11-13T05:22:22.209Z,68.26
2022-11-13T05:22:54.193Z,68.28
2022-11-13T05:23:26.371Z,68.24
2022-11-13T05:23:58.122Z,68.23
2022-11-13T05:24:30.570Z,68.25
2022-11-13T05:25:02.463Z,68.27
2022-11-13T05:25:34.584Z,68.32
2022-11-13T05:26:13.137Z,68.36
2022-11-13T05:26:44.931Z,68.40
2022-11-13T05:27:17.683Z,68.41
2022-11-13T05:27:49.784Z,68.46
2022-11-13T05:28:21.637Z,68.43
2022-11-13T05:28:55.932Z,68.37
2022-11-13T05:29:27.852Z,68.31
2022-11-13T05:29:59.669Z,68.32
2022-11-13T05:30:31.350Z,68.32
2022-11-13T05:31:15.632Z,68.37
2022-11-13T05:31:47.778Z,68.41
2022-11-13T05:32:19.550Z,68.45
2022-11-13T05:32:52.265Z,68.47
2022-11-13T05:33:24.026Z,68.52
2022-11-13T05:33:55.928Z,68.57
2022-11-13T05:34:27.702Z,68.64
2022-11-13T05:34:59.467Z,68.73
2022-11-13T05:35:31.608Z,68.78
2022-11-13T05:36:14.358Z,68.86
2022-11-13T05:36:46.147Z,68.87
2022-11-13T05:37:18.023Z,68.93
2022-11-13T05:37:49.738Z,69.00
2022-11-13T05:38:21.596Z,69.08
2022-11-13T05:38:53.450Z,69.11
2022-11-13T05:39:25.132Z,69.14
2022-11-13T05:39:56.903Z,69.20
2022-11-13T05:40:29.599Z,69.23
2022-11-13T05:41:10.058Z,69.21
2022-11-13T05:41:41.903Z,69.20
2022-11-13T05:42:13.678Z,69.14
2022-11-13T05:42:45.611Z,69.11
2022-11-13T05:43:17.440Z,69.07
2022-11-13T05:43:53.744Z,69.11
2022-11-13T05:44:28.422Z,69.14
2022-11-13T05:45:00.206Z,69.13
2022-11-13T05:45:32.104Z,69.09
2022-11-13T05:46:10.768Z,69.05
2022-11-13T05:46:42.591Z,69.00
2022-11-13T05:47:14.411Z,68.99
2022-11-13T05:47:46.263Z,69.03
2022-11-13T05:48:18.523Z,69.12
2022-11-13T05:48:56.025Z,69.17
2022-11-13T05:49:27.821Z,69.15
2022-11-13T05:49:59.643Z,69.18
2022-11-13T05:50:31.535Z,69.18
2022-11-13T05:51:04.448Z,69.21
2022-11-13T05:51:36.314Z,69.26
2022-11-13T05:52:08.163Z,69.29
2022-11-13T05:52:40.101Z,69.32
2022-11-13T05:53:11.863Z,69.30
2022-11-13T05:53:43.774Z,69.32
2022-11-13T05:54:15.627Z,69.33
2022-11-13T05:54:47.343Z,69.32
2022-11-13T05:55:23.013Z,69.32
2022-11-13T05:56:00.225Z,69.26
2022-11-13T05:56:34.597Z,69.24
2022-11-13T05:57:06.399Z,69.20
2022-11-13T05:57:38.228Z,69.18
2022-11-13T05:58:11.396Z,69.19
2022-11-13T05:58:43.656Z,69.21
2022-11-13T05:59:15.649Z,69.19
2022-11-13T05:59:47.588Z,69.20
2022-11-13T06:00:19.657Z,69.25
2022-11-13T06:00:51.531Z,69.28
2022-11-13T06:01:27.777Z,69.33
2022-11-13T06:01:59.845Z,69.31
2022-11-13T06:02:31.731Z,69.29
2022-11-13T06:03:03.524Z,69.27
2022-11-13T06:03:36.404Z,69.24
2022-11-13T06:04:09.944Z,69.22
2022-11-13T06:04:41.723Z,69.16
2022-11-13T06:05:13.663Z,69.11
2022-11-13T06:05:45.465Z,69.08
2022-11-13T06:06:19.713Z,69.04
2022-11-13T06:06:52.080Z,69.00
2022-11-13T06:07:23.989Z,69.07
2022-11-13T06:07:55.876Z,69.07
2022-11-13T06:08:28.188Z,69.07
2022-11-13T06:09:03.179Z,69.09
2022-11-13T06:09:34.974Z,69.18
2022-11-13T06:10:07.283Z,69.28
2022-11-13T06:10:39.163Z,69.33
2022-11-13T06:11:16.692Z,69.31
2022-11-13T06:11:48.610Z,69.25
2022-11-13T06:12:20.502Z,69.35
2022-11-13T06:12:54.443Z,69.35
2022-11-13T06:13:26.611Z,69.40
2022-11-13T06:13:59.280Z,69.43
2022-11-13T06:14:31.136Z,69.39
2022-11-13T06:15:03.182Z,69.41
2022-11-13T06:15:35.006Z,69.49
2022-11-13T06:16:33.220Z,69.54
2022-11-13T06:17:05.200Z,69.56
2022-11-13T06:17:37.176Z,69.56
2022-11-13T06:18:09.244Z,69.48
2022-11-13T06:18:43.094Z,69.44
2022-11-13T06:19:15.115Z,69.36
2022-11-13T06:19:47.986Z,69.30
2022-11-13T06:20:19.746Z,69.26
2022-11-13T06:20:51.620Z,69.27
2022-11-13T06:21:26.306Z,69.32
2022-11-13T06:21:58.128Z,69.39
2022-11-13T06:22:30.068Z,69.45
2022-11-13T06:23:01.983Z,69.54
2022-11-13T06:23:35.898Z,69.64
2022-11-13T06:24:11.738Z,69.73
2022-11-13T06:24:43.708Z,69.37
2022-11-13T06:25:15.732Z,68.44
2022-11-13T06:25:47.650Z,67.82
2022-11-13T06:26:21.891Z,67.36
2022-11-13T06:26:53.949Z,67.08
2022-11-13T06:27:27.232Z,66.92
2022-11-13T06:27:59.011Z,66.78
2022-11-13T06:28:32.502Z,66.68
2022-11-13T06:29:07.871Z,66.69
2022-11-13T06:29:39.774Z,66.64
2022-11-13T06:30:12.352Z,66.50
2022-11-13T06:30:44.308Z,66.39
2022-11-13T06:31:18.002Z,66.35
2022-11-13T06:31:49.945Z,66.16
2022-11-13T06:32:21.715Z,65.60
2022-11-13T06:32:54.070Z,65.07
2022-11-13T06:33:28.101Z,64.67
2022-11-13T06:34:00.600Z,64.53
2022-11-13T06:34:32.532Z,64.49
2022-11-13T06:35:04.787Z,64.54
2022-11-13T06:35:36.556Z,64.69
2022-11-13T06:36:11.700Z,64.94
2022-11-13T06:36:43.573Z,65.15
2022-11-13T06:37:15.535Z,65.45
2022-11-13T06:37:47.474Z,65.73
2022-11-13T06:38:19.595Z,66.01
2022-11-13T06:38:51.624Z,66.29
2022-11-13T06:39:23.570Z,66.58
2022-11-13T06:39:55.498Z,66.84
2022-11-13T06:40:27.423Z,67.08
2022-11-13T06:41:00.167Z,67.30
2022-11-13T06:41:32.126Z,67.47
2022-11-13T06:42:03.977Z,67.68
2022-11-13T06:42:35.995Z,67.87
2022-11-13T06:43:07.974Z,68.00
2022-11-13T06:43:40.379Z,68.04
2022-11-13T06:44:12.363Z,68.08
2022-11-13T06:44:44.285Z,68.23
2022-11-13T06:45:17.438Z,68.30
2022-11-13T06:45:49.363Z,68.37
2022-11-13T06:46:24.436Z,68.41
2022-11-13T06:46:56.400Z,68.42
2022-11-13T06:47:28.452Z,68.52
2022-11-13T06:48:00.551Z,68.59
2022-11-13T06:48:33.380Z,68.70
2022-11-13T06:49:05.551Z,68.73
2022-11-13T06:49:37.548Z,68.81
2022-11-13T06:50:09.574Z,68.89
2022-11-13T06:50:45.695Z,68.97
2022-11-13T06:51:22.619Z,69.05
2022-11-13T06:51:54.375Z,69.18
2022-11-13T06:52:26.258Z,69.28
2022-11-13T06:52:58.082Z,69.37
2022-11-13T06:53:30.782Z,69.45
2022-11-13T06:54:02.604Z,69.51
2022-11-13T06:54:34.533Z,69.58
2022-11-13T06:55:06.730Z,69.60
2022-11-13T06:55:49.791Z,69.63
2022-11-13T06:56:21.861Z,69.68
2022-11-13T06:56:53.686Z,69.69
2022-11-13T06:57:25.552Z,69.76
2022-11-13T06:57:57.529Z,69.84
2022-11-13T06:58:29.870Z,69.97
2022-11-13T06:59:05.070Z,70.06
2022-11-13T06:59:39.864Z,70.15
2022-11-13T07:00:12.315Z,70.30
2022-11-13T07:00:44.321Z,70.41
2022-11-13T07:01:21.917Z,70.43
2022-11-13T07:01:53.791Z,70.32
2022-11-13T07:02:25.562Z,70.22
2022-11-13T07:02:57.576Z,70.14
2022-11-13T07:03:29.394Z,70.12
2022-11-13T07:04:01.196Z,70.14
2022-11-13T07:04:32.910Z,70.10
2022-11-13T07:05:04.911Z,70.15
2022-11-13T07:05:37.166Z,70.24
2022-11-13T07:06:17.510Z,70.07
2022-11-13T07:06:49.442Z,70.24
2022-11-13T07:07:21.257Z,68.94
2022-11-13T07:07:53.202Z,68.26